sensor_id;sensor_type;location;lat;lon;timestamp;pressure;altitude;pressure_sealevel;temperature;humidity
72210;BME280;60113;48.762;12.302;2023-04-21T00:00:58;96872.47;;;3.70;86.62
72210;BME280;60113;48.762;12.302;2023-04-21T00:03:24;96868.28;;;3.68;86.87
72210;BME280;60113;48.762;12.302;2023-04-21T00:05:55;96858.13;;;3.63;86.59
72210;BME280;60113;48.762;12.302;2023-04-21T00:08:25;96861.06;;;3.57;85.08
72210;BME280;60113;48.762;12.302;2023-04-21T00:10:51;96855.38;;;3.50;84.96
72210;BME280;60113;48.762;12.302;2023-04-21T00:13:17;96854.00;;;3.43;85.02
72210;BME280;60113;48.762;12.302;2023-04-21T00:15:45;96851.72;;;3.36;86.00
72210;BME280;60113;48.762;12.302;2023-04-21T00:18:11;96845.28;;;3.28;85.55
72210;BME280;60113;48.762;12.302;2023-04-21T00:20:40;96841.41;;;3.19;87.44
72210;BME280;60113;48.762;12.302;2023-04-21T00:23:07;96838.38;;;3.10;87.49
72210;BME280;60113;48.762;12.302;2023-04-21T00:25:39;96835.28;;;3.04;85.62
72210;BME280;60113;48.762;12.302;2023-04-21T00:28:04;96837.34;;;2.97;85.68
72210;BME280;60113;48.762;12.302;2023-04-21T00:30:34;96834.75;;;2.97;87.20
72210;BME280;60113;48.762;12.302;2023-04-21T00:33:00;96838.34;;;2.94;88.53
72210;BME280;60113;48.762;12.302;2023-04-21T00:35:28;96839.47;;;2.88;88.34
72210;BME280;60113;48.762;12.302;2023-04-21T00:37:54;96852.78;;;2.82;89.07
72210;BME280;60113;48.762;12.302;2023-04-21T00:40:19;96853.00;;;2.78;88.89
72210;BME280;60113;48.762;12.302;2023-04-21T00:42:48;96855.84;;;2.73;88.39
72210;BME280;60113;48.762;12.302;2023-04-21T00:45:13;96860.28;;;2.71;87.92
72210;BME280;60113;48.762;12.302;2023-04-21T00:47:40;96863.78;;;2.70;86.95
72210;BME280;60113;48.762;12.302;2023-04-21T00:50:11;96862.97;;;2.69;86.48
72210;BME280;60113;48.762;12.302;2023-04-21T00:52:42;96861.25;;;2.68;86.53
72210;BME280;60113;48.762;12.302;2023-04-21T00:55:09;96870.81;;;2.68;86.35
72210;BME280;60113;48.762;12.302;2023-04-21T00:57:38;96865.63;;;2.68;88.08
72210;BME280;60113;48.762;12.302;2023-04-21T01:00:05;96874.22;;;2.68;88.42
72210;BME280;60113;48.762;12.302;2023-04-21T01:02:35;96874.16;;;2.70;89.37
72210;BME280;60113;48.762;12.302;2023-04-21T01:05:05;96875.00;;;2.70;90.04
72210;BME280;60113;48.762;12.302;2023-04-21T01:07:37;96876.00;;;2.68;90.06
72210;BME280;60113;48.762;12.302;2023-04-21T01:10:04;96876.00;;;2.68;91.42
72210;BME280;60113;48.762;12.302;2023-04-21T01:12:30;96881.19;;;2.68;89.74
72210;BME280;60113;48.762;12.302;2023-04-21T01:14:56;96880.28;;;2.69;88.26
72210;BME280;60113;48.762;12.302;2023-04-21T01:17:23;96879.34;;;2.70;88.66
72210;BME280;60113;48.762;12.302;2023-04-21T01:19:52;96880.19;;;2.70;89.40
72210;BME280;60113;48.762;12.302;2023-04-21T01:22:20;96879.41;;;2.68;89.09
72210;BME280;60113;48.762;12.302;2023-04-21T01:24:47;96873.41;;;2.68;89.09
72210;BME280;60113;48.762;12.302;2023-04-21T01:27:17;96869.03;;;2.68;88.61
72210;BME280;60113;48.762;12.302;2023-04-21T01:29:44;96862.03;;;2.70;90.28
72210;BME280;60113;48.762;12.302;2023-04-21T01:32:19;96871.47;;;2.71;89.57
72210;BME280;60113;48.762;12.302;2023-04-21T01:34:46;96873.19;;;2.72;89.54
72210;BME280;60113;48.762;12.302;2023-04-21T01:37:15;96862.72;;;2.74;89.46
72210;BME280;60113;48.762;12.302;2023-04-21T01:39:43;96849.75;;;2.74;87.70
72210;BME280;60113;48.762;12.302;2023-04-21T01:42:10;96848.97;;;2.72;88.37
72210;BME280;60113;48.762;12.302;2023-04-21T01:44:36;96844.72;;;2.71;91.40
72210;BME280;60113;48.762;12.302;2023-04-21T01:47:02;96846.78;;;2.64;91.08
72210;BME280;60113;48.762;12.302;2023-04-21T01:49:28;96853.19;;;2.57;91.23
72210;BME280;60113;48.762;12.302;2023-04-21T01:51:53;96845.63;;;2.52;90.64
72210;BME280;60113;48.762;12.302;2023-04-21T01:54:19;96847.69;;;2.45;87.49
72210;BME280;60113;48.762;12.302;2023-04-21T01:56:44;96853.09;;;2.41;87.64
72210;BME280;60113;48.762;12.302;2023-04-21T01:59:10;96859.50;;;2.33;86.64
72210;BME280;60113;48.762;12.302;2023-04-21T02:01:36;96859.81;;;2.27;87.10
72210;BME280;60113;48.762;12.302;2023-04-21T02:04:03;96865.44;;;2.18;89.87
72210;BME280;60113;48.762;12.302;2023-04-21T02:06:29;96868.34;;;2.11;89.48
72210;BME280;60113;48.762;12.302;2023-04-21T02:08:57;96860.84;;;2.05;89.59
72210;BME280;60113;48.762;12.302;2023-04-21T02:11:24;96867.16;;;1.99;89.78
72210;BME280;60113;48.762;12.302;2023-04-21T02:13:51;96867.47;;;1.93;89.36
72210;BME280;60113;48.762;12.302;2023-04-21T02:16:17;96864.16;;;1.90;89.68
72210;BME280;60113;48.762;12.302;2023-04-21T02:18:45;96862.78;;;1.82;89.61
72210;BME280;60113;48.762;12.302;2023-04-21T02:21:11;96865.59;;;1.78;89.13
72210;BME280;60113;48.762;12.302;2023-04-21T02:23:37;96864.94;;;1.72;88.87
72210;BME280;60113;48.762;12.302;2023-04-21T02:26:03;96863.44;;;1.68;88.85
72210;BME280;60113;48.762;12.302;2023-04-21T02:28:28;96860.19;;;1.63;89.19
72210;BME280;60113;48.762;12.302;2023-04-21T02:30:56;96859.53;;;1.59;89.50
72210;BME280;60113;48.762;12.302;2023-04-21T02:33:21;96854.47;;;1.56;89.02
72210;BME280;60113;48.762;12.302;2023-04-21T02:35:47;96848.53;;;1.54;87.92
72210;BME280;60113;48.762;12.302;2023-04-21T02:38:13;96849.44;;;1.53;88.25
72210;BME280;60113;48.762;12.302;2023-04-21T02:40:38;96857.22;;;1.53;90.09
72210;BME280;60113;48.762;12.302;2023-04-21T02:43:05;96846.91;;;1.52;93.18
72210;BME280;60113;48.762;12.302;2023-04-21T02:45:31;96853.00;;;1.50;95.02
72210;BME280;60113;48.762;12.302;2023-04-21T02:47:56;96850.53;;;1.47;92.92
72210;BME280;60113;48.762;12.302;2023-04-21T02:50:23;96858.44;;;1.44;91.49
72210;BME280;60113;48.762;12.302;2023-04-21T02:52:49;96855.19;;;1.41;91.37
72210;BME280;60113;48.762;12.302;2023-04-21T02:55:15;96860.56;;;1.36;90.16
72210;BME280;60113;48.762;12.302;2023-04-21T02:57:40;96862.44;;;1.32;87.74
72210;BME280;60113;48.762;12.302;2023-04-21T03:00:08;96873.78;;;1.30;90.25
72210;BME280;60113;48.762;12.302;2023-04-21T03:02:36;96878.19;;;1.28;90.56
72210;BME280;60113;48.762;12.302;2023-04-21T03:05:01;96873.06;;;1.26;89.60
72210;BME280;60113;48.762;12.302;2023-04-21T03:07:26;96877.50;;;1.24;90.08
72210;BME280;60113;48.762;12.302;2023-04-21T03:09:52;96874.97;;;1.22;89.71
72210;BME280;60113;48.762;12.302;2023-04-21T03:12:18;96873.13;;;1.24;89.78
72210;BME280;60113;48.762;12.302;2023-04-21T03:14:43;96868.66;;;1.28;89.06
72210;BME280;60113;48.762;12.302;2023-04-21T03:17:09;96872.03;;;1.30;89.76
72210;BME280;60113;48.762;12.302;2023-04-21T03:19:34;96878.91;;;1.31;91.24
72210;BME280;60113;48.762;12.302;2023-04-21T03:22:00;96875.59;;;1.28;90.21
72210;BME280;60113;48.762;12.302;2023-04-21T03:24:25;96875.59;;;1.28;90.56
72210;BME280;60113;48.762;12.302;2023-04-21T03:26:52;96878.25;;;1.26;90.15
72210;BME280;60113;48.762;12.302;2023-04-21T03:29:17;96879.22;;;1.23;90.54
72210;BME280;60113;48.762;12.302;2023-04-21T03:31:43;96875.94;;;1.20;87.28
72210;BME280;60113;48.762;12.302;2023-04-21T03:34:08;96871.66;;;1.19;87.76
72210;BME280;60113;48.762;12.302;2023-04-21T03:36:34;96872.66;;;1.16;87.67
72210;BME280;60113;48.762;12.302;2023-04-21T03:39:00;96876.19;;;1.14;89.89
72210;BME280;60113;48.762;12.302;2023-04-21T03:41:25;96876.25;;;1.12;90.40
72210;BME280;60113;48.762;12.302;2023-04-21T03:43:51;96880.75;;;1.08;87.82
72210;BME280;60113;48.762;12.302;2023-04-21T03:46:18;96881.78;;;1.04;88.72
72210;BME280;60113;48.762;12.302;2023-04-21T03:48:44;96887.22;;;0.98;87.50
72210;BME280;60113;48.762;12.302;2023-04-21T03:51:10;96890.13;;;0.90;88.75
72210;BME280;60113;48.762;12.302;2023-04-21T03:53:35;96887.81;;;0.84;89.73
72210;BME280;60113;48.762;12.302;2023-04-21T03:56:01;96884.66;;;0.77;90.05
72210;BME280;60113;48.762;12.302;2023-04-21T03:58:27;96892.59;;;0.72;90.70
72210;BME280;60113;48.762;12.302;2023-04-21T04:00:53;96891.94;;;0.67;92.67
72210;BME280;60113;48.762;12.302;2023-04-21T04:03:19;96888.69;;;0.64;91.96
72210;BME280;60113;48.762;12.302;2023-04-21T04:05:44;96886.97;;;0.62;90.36
72210;BME280;60113;48.762;12.302;2023-04-21T04:08:10;96882.72;;;0.61;88.45
72210;BME280;60113;48.762;12.302;2023-04-21T04:10:35;96875.94;;;0.59;86.79
72210;BME280;60113;48.762;12.302;2023-04-21T04:13:01;96883.75;;;0.57;88.72
72210;BME280;60113;48.762;12.302;2023-04-21T04:15:28;96882.91;;;0.57;87.62
72210;BME280;60113;48.762;12.302;2023-04-21T04:17:53;96876.94;;;0.55;90.17
72210;BME280;60113;48.762;12.302;2023-04-21T04:20:19;96878.78;;;0.53;89.95
72210;BME280;60113;48.762;12.302;2023-04-21T04:22:45;96875.34;;;0.52;88.91
72210;BME280;60113;48.762;12.302;2023-04-21T04:25:10;96870.16;;;0.52;89.38
72210;BME280;60113;48.762;12.302;2023-04-21T04:27:39;96878.78;;;0.53;89.42
72210;BME280;60113;48.762;12.302;2023-04-21T04:30:06;96876.13;;;0.54;89.09
72210;BME280;60113;48.762;12.302;2023-04-21T04:32:32;96883.03;;;0.54;89.73
72210;BME280;60113;48.762;12.302;2023-04-21T04:34:57;96889.06;;;0.54;88.53
72210;BME280;60113;48.762;12.302;2023-04-21T04:37:23;96886.47;;;0.54;88.79
72210;BME280;60113;48.762;12.302;2023-04-21T04:39:53;96882.84;;;0.58;89.88
72210;BME280;60113;48.762;12.302;2023-04-21T04:42:19;96888.69;;;0.64;89.66
72210;BME280;60113;48.762;12.302;2023-04-21T04:44:52;96890.97;;;0.70;88.54
72210;BME280;60113;48.762;12.302;2023-04-21T04:47:18;96895.06;;;0.76;88.01
72210;BME280;60113;48.762;12.302;2023-04-21T04:49:43;96883.53;;;0.83;88.52
72210;BME280;60113;48.762;12.302;2023-04-21T04:52:09;96889.31;;;0.90;88.68
72210;BME280;60113;48.762;12.302;2023-04-21T04:54:34;96884.75;;;0.95;89.56
72210;BME280;60113;48.762;12.302;2023-04-21T04:57:00;96878.56;;;0.99;90.43
72210;BME280;60113;48.762;12.302;2023-04-21T04:59:27;96881.78;;;1.04;89.45
72210;BME280;60113;48.762;12.302;2023-04-21T05:01:53;96878.22;;;1.07;89.26
72210;BME280;60113;48.762;12.302;2023-04-21T05:04:18;96878.91;;;1.10;89.90
72210;BME280;60113;48.762;12.302;2023-04-21T05:06:44;96881.25;;;1.17;90.00
72210;BME280;60113;48.762;12.302;2023-04-21T05:09:09;96878.44;;;1.21;90.55
72210;BME280;60113;48.762;12.302;2023-04-21T05:11:35;96882.59;;;1.26;90.77
72210;BME280;60113;48.762;12.302;2023-04-21T05:14:01;96881.56;;;1.30;90.74
72210;BME280;60113;48.762;12.302;2023-04-21T05:16:26;96873.72;;;1.31;91.13
72210;BME280;60113;48.762;12.302;2023-04-21T05:18:52;96875.25;;;1.35;91.81
72210;BME280;60113;48.762;12.302;2023-04-21T05:21:25;96887.06;;;1.41;93.49
72210;BME280;60113;48.762;12.302;2023-04-21T05:23:54;96888.56;;;1.47;92.44
72210;BME280;60113;48.762;12.302;2023-04-21T05:26:21;96885.63;;;1.55;91.29
72210;BME280;60113;48.762;12.302;2023-04-21T05:28:48;96880.91;;;1.63;91.59
72210;BME280;60113;48.762;12.302;2023-04-21T05:31:14;96886.53;;;1.73;91.65
72210;BME280;60113;48.762;12.302;2023-04-21T05:33:41;96883.44;;;1.84;90.37
72210;BME280;60113;48.762;12.302;2023-04-21T05:36:07;96886.38;;;1.95;89.10
72210;BME280;60113;48.762;12.302;2023-04-21T05:38:34;96893.47;;;2.09;89.77
72210;BME280;60113;48.762;12.302;2023-04-21T05:41:00;96897.19;;;2.23;90.20
72210;BME280;60113;48.762;12.302;2023-04-21T05:43:25;96891.19;;;2.40;90.74
72210;BME280;60113;48.762;12.302;2023-04-21T05:45:53;96894.69;;;2.57;91.02
72210;BME280;60113;48.762;12.302;2023-04-21T05:48:19;96892.84;;;2.77;91.76
72210;BME280;60113;48.762;12.302;2023-04-21T05:50:44;96892.78;;;2.96;92.26
72210;BME280;60113;48.762;12.302;2023-04-21T05:53:10;96878.00;;;3.14;92.07
72210;BME280;60113;48.762;12.302;2023-04-21T05:55:37;96885.41;;;3.38;92.53
72210;BME280;60113;48.762;12.302;2023-04-21T05:58:03;96880.38;;;3.69;93.07
72210;BME280;60113;48.762;12.302;2023-04-21T06:00:32;96883.59;;;4.05;93.76
72210;BME280;60113;48.762;12.302;2023-04-21T06:02:58;96881.06;;;4.35;93.57
72210;BME280;60113;48.762;12.302;2023-04-21T06:05:24;96884.38;;;4.54;93.10
72210;BME280;60113;48.762;12.302;2023-04-21T06:07:49;96880.41;;;4.62;92.63
72210;BME280;60113;48.762;12.302;2023-04-21T06:10:15;96882.88;;;4.80;93.42
72210;BME280;60113;48.762;12.302;2023-04-21T06:12:41;96876.56;;;4.99;93.01
72210;BME280;60113;48.762;12.302;2023-04-21T06:15:07;96875.91;;;5.24;93.76
72210;BME280;60113;48.762;12.302;2023-04-21T06:17:33;96882.16;;;5.51;92.89
72210;BME280;60113;48.762;12.302;2023-04-21T06:19:58;96874.38;;;5.79;93.06
72210;BME280;60113;48.762;12.302;2023-04-21T06:22:24;96880.00;;;6.15;95.27
72210;BME280;60113;48.762;12.302;2023-04-21T06:24:50;96882.41;;;6.45;94.68
72210;BME280;60113;48.762;12.302;2023-04-21T06:27:18;96884.97;;;6.73;94.74
72210;BME280;60113;48.762;12.302;2023-04-21T06:29:44;96873.81;;;6.97;93.75
72210;BME280;60113;48.762;12.302;2023-04-21T06:32:11;96885.34;;;7.20;94.66
72210;BME280;60113;48.762;12.302;2023-04-21T06:34:37;96875.19;;;7.29;92.73
72210;BME280;60113;48.762;12.302;2023-04-21T06:37:03;96878.94;;;7.24;91.95
72210;BME280;60113;48.762;12.302;2023-04-21T06:39:29;96879.38;;;7.18;91.58
72210;BME280;60113;48.762;12.302;2023-04-21T06:41:55;96884.28;;;7.23;92.27
72210;BME280;60113;48.762;12.302;2023-04-21T06:44:22;96872.28;;;7.20;93.23
72210;BME280;60113;48.762;12.302;2023-04-21T06:46:48;96866.41;;;7.30;93.85
72210;BME280;60113;48.762;12.302;2023-04-21T06:49:16;96868.78;;;7.59;94.46
72210;BME280;60113;48.762;12.302;2023-04-21T06:51:41;96854.16;;;7.94;94.75
72210;BME280;60113;48.762;12.302;2023-04-21T06:54:07;96865.50;;;8.30;93.87
72210;BME280;60113;48.762;12.302;2023-04-21T06:56:33;96868.66;;;8.71;93.70
72210;BME280;60113;48.762;12.302;2023-04-21T06:58:58;96871.88;;;9.22;96.81
72210;BME280;60113;48.762;12.302;2023-04-21T07:01:24;96866.97;;;9.75;97.40
72210;BME280;60113;48.762;12.302;2023-04-21T07:03:50;96860.41;;;10.25;94.21
72210;BME280;60113;48.762;12.302;2023-04-21T07:06:16;96875.16;;;10.70;92.10
72210;BME280;60113;48.762;12.302;2023-04-21T07:08:42;96861.84;;;11.05;91.09
72210;BME280;60113;48.762;12.302;2023-04-21T07:11:08;96869.16;;;11.22;89.36
72210;BME280;60113;48.762;12.302;2023-04-21T07:13:33;96862.16;;;11.43;87.79
72210;BME280;60113;48.762;12.302;2023-04-21T07:15:59;96853.13;;;11.67;91.98
72210;BME280;60113;48.762;12.302;2023-04-21T07:18:24;96858.44;;;11.86;91.72
72210;BME280;60113;48.762;12.302;2023-04-21T07:20:50;96860.19;;;12.07;92.73
72210;BME280;60113;48.762;12.302;2023-04-21T07:23:16;96859.63;;;12.23;88.52
72210;BME280;60113;48.762;12.302;2023-04-21T07:25:42;96867.84;;;12.40;90.90
72210;BME280;60113;48.762;12.302;2023-04-21T07:28:08;96864.66;;;12.46;89.41
72210;BME280;60113;48.762;12.302;2023-04-21T07:30:35;96860.91;;;12.49;89.15
72210;BME280;60113;48.762;12.302;2023-04-21T07:33:02;96862.00;;;12.36;87.80
72210;BME280;60113;48.762;12.302;2023-04-21T07:35:28;96867.88;;;11.99;84.28
72210;BME280;60113;48.762;12.302;2023-04-21T07:37:53;96866.72;;;11.72;85.23
72210;BME280;60113;48.762;12.302;2023-04-21T07:40:19;96867.16;;;11.46;84.47
72210;BME280;60113;48.762;12.302;2023-04-21T07:42:45;96868.75;;;11.27;86.05
72210;BME280;60113;48.762;12.302;2023-04-21T07:45:11;96876.72;;;11.16;84.23
72210;BME280;60113;48.762;12.302;2023-04-21T07:47:36;96869.41;;;11.19;82.16
72210;BME280;60113;48.762;12.302;2023-04-21T07:50:02;96858.84;;;11.41;81.77
72210;BME280;60113;48.762;12.302;2023-04-21T07:52:28;96859.22;;;11.67;82.53
72210;BME280;60113;48.762;12.302;2023-04-21T07:54:54;96856.38;;;11.90;82.23
72210;BME280;60113;48.762;12.302;2023-04-21T07:57:19;96863.72;;;12.06;80.11
72210;BME280;60113;48.762;12.302;2023-04-21T07:59:45;96868.41;;;12.34;83.02
72210;BME280;60113;48.762;12.302;2023-04-21T08:02:10;96868.66;;;12.70;83.86
72210;BME280;60113;48.762;12.302;2023-04-21T08:04:36;96867.09;;;13.07;83.13
72210;BME280;60113;48.762;12.302;2023-04-21T08:07:01;96872.13;;;13.38;77.06
72210;BME280;60113;48.762;12.302;2023-04-21T08:09:27;96869.69;;;13.75;82.33
72210;BME280;60113;48.762;12.302;2023-04-21T08:11:52;96863.25;;;14.06;78.80
72210;BME280;60113;48.762;12.302;2023-04-21T08:14:20;96869.69;;;14.21;76.70
72210;BME280;60113;48.762;12.302;2023-04-21T08:16:45;96866.81;;;14.33;77.98
72210;BME280;60113;48.762;12.302;2023-04-21T08:19:11;96867.72;;;14.60;79.25
72210;BME280;60113;48.762;12.302;2023-04-21T08:21:37;96873.00;;;14.78;80.71
72210;BME280;60113;48.762;12.302;2023-04-21T08:24:02;96866.81;;;14.87;73.82
72210;BME280;60113;48.762;12.302;2023-04-21T08:26:28;96855.88;;;15.09;80.33
72210;BME280;60113;48.762;12.302;2023-04-21T08:28:55;96861.97;;;15.28;81.68
72210;BME280;60113;48.762;12.302;2023-04-21T08:31:21;96863.25;;;15.50;82.24
72210;BME280;60113;48.762;12.302;2023-04-21T08:33:46;96856.69;;;15.62;79.72
72210;BME280;60113;48.762;12.302;2023-04-21T08:36:12;96865.13;;;15.58;77.67
72210;BME280;60113;48.762;12.302;2023-04-21T08:38:38;96867.75;;;15.58;78.00
72210;BME280;60113;48.762;12.302;2023-04-21T08:41:04;96866.91;;;15.57;77.73
72210;BME280;60113;48.762;12.302;2023-04-21T08:43:30;96867.88;;;15.48;77.71
72210;BME280;60113;48.762;12.302;2023-04-21T08:45:55;96870.19;;;15.51;78.28
72210;BME280;60113;48.762;12.302;2023-04-21T08:48:22;96854.06;;;15.36;75.54
72210;BME280;60113;48.762;12.302;2023-04-21T08:50:49;96852.41;;;15.35;77.43
72210;BME280;60113;48.762;12.302;2023-04-21T08:53:18;96854.06;;;15.36;75.79
72210;BME280;60113;48.762;12.302;2023-04-21T08:55:45;96861.88;;;15.37;76.22
72210;BME280;60113;48.762;12.302;2023-04-21T08:58:15;96862.81;;;15.36;77.14
72210;BME280;60113;48.762;12.302;2023-04-21T09:00:42;96853.56;;;15.32;72.94
72210;BME280;60113;48.762;12.302;2023-04-21T09:03:08;96862.28;;;15.24;75.44
72210;BME280;60113;48.762;12.302;2023-04-21T09:05:35;96860.09;;;15.20;74.87
72210;BME280;60113;48.762;12.302;2023-04-21T09:08:14;96859.31;;;15.01;66.63
72210;BME280;60113;48.762;12.302;2023-04-21T09:10:48;96857.56;;;15.10;71.92
72210;BME280;60113;48.762;12.302;2023-04-21T09:13:15;96860.75;;;14.95;73.45
72210;BME280;60113;48.762;12.302;2023-04-21T09:15:44;96851.50;;;14.91;71.81
72210;BME280;60113;48.762;12.302;2023-04-21T09:18:22;96842.47;;;15.02;70.88
72210;BME280;60113;48.762;12.302;2023-04-21T09:20:51;96839.44;;;15.23;71.60
72210;BME280;60113;48.762;12.302;2023-04-21T09:23:19;96838.31;;;15.69;71.08
72210;BME280;60113;48.762;12.302;2023-04-21T09:25:45;96844.94;;;16.00;72.04
72210;BME280;60113;48.762;12.302;2023-04-21T09:28:12;96833.38;;;16.34;73.21
72210;BME280;60113;48.762;12.302;2023-04-21T09:30:40;96829.44;;;16.80;72.55
72210;BME280;60113;48.762;12.302;2023-04-21T09:33:05;96835.84;;;17.28;74.45
72210;BME280;60113;48.762;12.302;2023-04-21T09:35:35;96843.16;;;17.74;66.31
72210;BME280;60113;48.762;12.302;2023-04-21T09:38:03;96833.50;;;18.21;72.07
72210;BME280;60113;48.762;12.302;2023-04-21T09:40:29;96836.16;;;18.45;71.60
72210;BME280;60113;48.762;12.302;2023-04-21T09:42:55;96839.72;;;18.37;66.71
72210;BME280;60113;48.762;12.302;2023-04-21T09:45:25;96840.69;;;18.59;64.20
72210;BME280;60113;48.762;12.302;2023-04-21T09:47:55;96838.34;;;18.65;67.65
72210;BME280;60113;48.762;12.302;2023-04-21T09:50:21;96837.53;;;18.79;65.42
72210;BME280;60113;48.762;12.302;2023-04-21T09:52:49;96843.00;;;19.01;68.11
72210;BME280;60113;48.762;12.302;2023-04-21T09:55:17;96837.84;;;19.23;65.16
72210;BME280;60113;48.762;12.302;2023-04-21T09:57:46;96838.00;;;19.36;67.04
72210;BME280;60113;48.762;12.302;2023-04-21T10:00:13;96834.97;;;19.40;67.28
72210;BME280;60113;48.762;12.302;2023-04-21T10:02:45;96827.19;;;19.53;65.70
72210;BME280;60113;48.762;12.302;2023-04-21T10:05:12;96834.53;;;19.66;68.05
72210;BME280;60113;48.762;12.302;2023-04-21T10:07:38;96832.22;;;19.63;61.58
72210;BME280;60113;48.762;12.302;2023-04-21T10:10:07;96821.94;;;19.45;57.48
72210;BME280;60113;48.762;12.302;2023-04-21T10:12:37;96822.41;;;19.18;60.48
72210;BME280;60113;48.762;12.302;2023-04-21T10:21:10;96826.25;;;19.46;56.58
72210;BME280;60113;48.762;12.302;2023-04-21T10:23:35;96818.78;;;19.86;65.88
72210;BME280;60113;48.762;12.302;2023-04-21T10:26:24;96815.78;;;19.74;49.87
72210;BME280;60113;48.762;12.302;2023-04-21T10:28:55;96811.44;;;19.89;61.32
72210;BME280;60113;48.762;12.302;2023-04-21T10:31:34;96805.13;;;19.74;53.46
72210;BME280;60113;48.762;12.302;2023-04-21T10:39:10;96807.78;;;19.44;52.07
72210;BME280;60113;48.762;12.302;2023-04-21T10:41:38;96803.03;;;19.40;61.50
72210;BME280;60113;48.762;12.302;2023-04-21T10:44:12;96801.56;;;19.67;59.22
72210;BME280;60113;48.762;12.302;2023-04-21T10:46:51;96794.78;;;20.02;63.63
72210;BME280;60113;48.762;12.302;2023-04-21T10:49:28;96799.50;;;19.84;49.69
72210;BME280;60113;48.762;12.302;2023-04-21T10:54:40;96796.31;;;20.33;52.15
72210;BME280;60113;48.762;12.302;2023-04-21T10:57:08;96803.75;;;20.16;61.79
72210;BME280;60113;48.762;12.302;2023-04-21T10:59:34;96790.22;;;20.17;61.76
72210;BME280;60113;48.762;12.302;2023-04-21T11:02:10;96786.78;;;20.02;47.96
72210;BME280;60113;48.762;12.302;2023-04-21T11:04:36;96791.47;;;19.99;61.33
72210;BME280;60113;48.762;12.302;2023-04-21T11:07:06;96781.63;;;20.00;61.85
72210;BME280;60113;48.762;12.302;2023-04-21T11:09:35;96790.28;;;20.24;62.06
72210;BME280;60113;48.762;12.302;2023-04-21T11:12:03;96784.50;;;20.20;54.47
72210;BME280;60113;48.762;12.302;2023-04-21T11:14:32;96783.44;;;20.36;59.64
72210;BME280;60113;48.762;12.302;2023-04-21T11:16:57;96779.09;;;20.57;61.61
72210;BME280;60113;48.762;12.302;2023-04-21T11:19:23;96782.97;;;20.33;59.26
72210;BME280;60113;48.762;12.302;2023-04-21T11:21:51;96774.84;;;20.41;60.68
72210;BME280;60113;48.762;12.302;2023-04-21T11:24:20;96773.22;;;20.40;55.71
72210;BME280;60113;48.762;12.302;2023-04-21T11:26:46;96772.94;;;20.57;60.02
72210;BME280;60113;48.762;12.302;2023-04-21T11:29:12;96767.56;;;20.79;56.83
72210;BME280;60113;48.762;12.302;2023-04-21T11:31:40;96772.41;;;20.68;49.44
72210;BME280;60113;48.762;12.302;2023-04-21T11:34:06;96768.13;;;20.45;43.70
72210;BME280;60113;48.762;12.302;2023-04-21T11:36:38;96767.91;;;20.47;54.85
72210;BME280;60113;48.762;12.302;2023-04-21T11:39:07;96768.94;;;20.46;51.88
72210;BME280;60113;48.762;12.302;2023-04-21T11:41:35;96780.75;;;20.58;60.24
72210;BME280;60113;48.762;12.302;2023-04-21T11:44:01;96776.88;;;20.90;60.94
72210;BME280;60113;48.762;12.302;2023-04-21T11:46:27;96771.28;;;20.84;47.75
72210;BME280;60113;48.762;12.302;2023-04-21T11:49:06;96785.31;;;20.65;44.27
72210;BME280;60113;48.762;12.302;2023-04-21T11:51:32;96772.16;;;20.63;46.57
72210;BME280;60113;48.762;12.302;2023-04-21T11:53:59;96766.97;;;20.33;55.40
72210;BME280;60113;48.762;12.302;2023-04-21T11:56:25;96765.84;;;19.83;55.00
72210;BME280;60113;48.762;12.302;2023-04-21T11:58:51;96763.50;;;20.32;58.33
72210;BME280;60113;48.762;12.302;2023-04-21T12:01:18;96765.97;;;20.56;58.99
72210;BME280;60113;48.762;12.302;2023-04-21T12:03:51;96771.50;;;20.83;50.69
72210;BME280;60113;48.762;12.302;2023-04-21T12:06:24;96769.53;;;20.19;41.68
72210;BME280;60113;48.762;12.302;2023-04-21T12:09:00;96766.53;;;20.51;44.09
72210;BME280;60113;48.762;12.302;2023-04-21T12:11:28;96760.81;;;20.83;57.97
72210;BME280;60113;48.762;12.302;2023-04-21T12:13:57;96758.06;;;20.98;46.87
72210;BME280;60113;48.762;12.302;2023-04-21T12:16:28;96757.38;;;21.18;50.93
72210;BME280;60113;48.762;12.302;2023-04-21T12:18:55;96749.66;;;20.72;48.01
72210;BME280;60113;48.762;12.302;2023-04-21T12:21:21;96743.97;;;20.54;52.15
72210;BME280;60113;48.762;12.302;2023-04-21T12:23:50;96743.59;;;20.57;56.28
72210;BME280;60113;48.762;12.302;2023-04-21T12:26:16;96743.88;;;20.69;56.77
72210;BME280;60113;48.762;12.302;2023-04-21T12:28:41;96742.19;;;20.90;57.31
72210;BME280;60113;48.762;12.302;2023-04-21T12:31:07;96741.28;;;21.11;54.54
72210;BME280;60113;48.762;12.302;2023-04-21T12:33:32;96743.69;;;21.41;57.32
72210;BME280;60113;48.762;12.302;2023-04-21T12:35:58;96740.31;;;21.74;54.95
72210;BME280;60113;48.762;12.302;2023-04-21T12:38:24;96727.88;;;21.95;56.55
72210;BME280;60113;48.762;12.302;2023-04-21T12:40:50;96730.34;;;22.04;57.01
72210;BME280;60113;48.762;12.302;2023-04-21T12:43:16;96734.47;;;22.00;56.52
72210;BME280;60113;48.762;12.302;2023-04-21T12:45:41;96730.53;;;22.02;55.05
72210;BME280;60113;48.762;12.302;2023-04-21T12:48:06;96718.59;;;22.05;55.41
72210;BME280;60113;48.762;12.302;2023-04-21T12:50:32;96718.41;;;21.86;55.03
72210;BME280;60113;48.762;12.302;2023-04-21T12:52:58;96721.78;;;21.66;55.55
72210;BME280;60113;48.762;12.302;2023-04-21T12:55:23;96714.16;;;21.63;53.14
72210;BME280;60113;48.762;12.302;2023-04-21T12:57:49;96725.09;;;21.68;55.07
72210;BME280;60113;48.762;12.302;2023-04-21T13:00:16;96721.16;;;21.57;54.94
72210;BME280;60113;48.762;12.302;2023-04-21T13:02:42;96719.91;;;21.60;50.72
72210;BME280;60113;48.762;12.302;2023-04-21T13:05:08;96725.94;;;21.76;54.09
72210;BME280;60113;48.762;12.302;2023-04-21T13:07:36;96714.50;;;21.95;54.93